sensor_id;sensor_type;location;lat;lon;timestamp;pressure;altitude;pressure_sealevel;temperature;humidity
40794;BME280;26502;51.886;15.604;2022-12-18T00:00:09;102352.48;;;-3.63;79.48
40794;BME280;26502;51.886;15.604;2022-12-18T00:05:49;102360.71;;;-3.62;79.08
40794;BME280;26502;51.886;15.604;2022-12-18T00:11:05;102360.93;;;-3.58;79.17
40794;BME280;26502;51.886;15.604;2022-12-18T00:16:17;102367.05;;;-3.67;79.20
40794;BME280;26502;51.886;15.604;2022-12-18T00:21:31;102373.65;;;-3.70;79.24
40794;BME280;26502;51.886;15.604;2022-12-18T00:26:44;102382.39;;;-3.63;79.32
40794;BME280;26502;51.886;15.604;2022-12-18T00:31:58;102380.38;;;-3.61;79.08
40794;BME280;26502;51.886;15.604;2022-12-18T00:37:09;102385.29;;;-3.67;79.12
40794;BME280;26502;51.886;15.604;2022-12-18T00:42:22;102390.77;;;-3.58;79.04
40794;BME280;26502;51.886;15.604;2022-12-18T00:47:48;102398.67;;;-3.60;79.05
40794;BME280;26502;51.886;15.604;2022-12-18T00:53:02;102406.29;;;-3.77;79.07
40794;BME280;26502;51.886;15.604;2022-12-18T00:58:15;102413.52;;;-3.84;79.24
40794;BME280;26502;51.886;15.604;2022-12-18T01:03:30;102424.38;;;-3.79;79.34
40794;BME280;26502;51.886;15.604;2022-12-18T01:08:42;102427.86;;;-3.79;79.06
40794;BME280;26502;51.886;15.604;2022-12-18T01:13:55;102435.51;;;-3.76;79.24
40794;BME280;26502;51.886;15.604;2022-12-18T01:19:07;102437.92;;;-3.70;79.21
40794;BME280;26502;51.886;15.604;2022-12-18T01:24:19;102438.00;;;-3.68;78.92
40794;BME280;26502;51.886;15.604;2022-12-18T01:29:32;102440.07;;;-3.65;79.10
40794;BME280;26502;51.886;15.604;2022-12-18T01:34:45;102438.82;;;-3.69;78.89
40794;BME280;26502;51.886;15.604;2022-12-18T01:39:56;102442.33;;;-3.62;79.24
40794;BME280;26502;51.886;15.604;2022-12-18T01:45:25;102442.50;;;-3.62;78.89
40794;BME280;26502;51.886;15.604;2022-12-18T01:50:40;102448.67;;;-3.64;78.67
40794;BME280;26502;51.886;15.604;2022-12-18T01:55:55;102454.33;;;-3.62;78.95
40794;BME280;26502;51.886;15.604;2022-12-18T02:01:08;102456.45;;;-3.67;78.76
40794;BME280;26502;51.886;15.604;2022-12-18T02:06:23;102456.34;;;-3.69;78.76
40794;BME280;26502;51.886;15.604;2022-12-18T02:11:48;102455.17;;;-3.66;78.90
40794;BME280;26502;51.886;15.604;2022-12-18T02:17:03;102453.17;;;-3.64;78.87
40794;BME280;26502;51.886;15.604;2022-12-18T02:22:26;102459.02;;;-3.68;78.78
40794;BME280;26502;51.886;15.604;2022-12-18T02:27:39;102454.75;;;-3.67;78.63
40794;BME280;26502;51.886;15.604;2022-12-18T02:32:52;102451.38;;;-3.69;78.60
40794;BME280;26502;51.886;15.604;2022-12-18T02:38:00;102462.98;;;-3.66;78.42
40794;BME280;26502;51.886;15.604;2022-12-18T02:43:13;102470.86;;;-3.71;78.88
40794;BME280;26502;51.886;15.604;2022-12-18T02:48:24;102472.59;;;-3.74;78.43
40794;BME280;26502;51.886;15.604;2022-12-18T02:53:36;102475.57;;;-3.77;78.50
40794;BME280;26502;51.886;15.604;2022-12-18T02:58:50;102472.52;;;-3.85;78.58
40794;BME280;26502;51.886;15.604;2022-12-18T03:04:13;102469.98;;;-3.84;78.59
40794;BME280;26502;51.886;15.604;2022-12-18T03:09:27;102464.60;;;-3.74;78.86
40794;BME280;26502;51.886;15.604;2022-12-18T03:14:39;102465.65;;;-3.54;78.83
40794;BME280;26502;51.886;15.604;2022-12-18T03:19:49;102464.95;;;-3.65;78.35
40794;BME280;26502;51.886;15.604;2022-12-18T03:24:59;102472.48;;;-3.79;78.23
40794;BME280;26502;51.886;15.604;2022-12-18T03:30:13;102471.55;;;-3.77;78.39
40794;BME280;26502;51.886;15.604;2022-12-18T03:35:25;102472.56;;;-3.84;78.50
40794;BME280;26502;51.886;15.604;2022-12-18T03:40:39;102475.46;;;-4.01;78.36
40794;BME280;26502;51.886;15.604;2022-12-18T03:45:53;102483.58;;;-4.02;78.63
40794;BME280;26502;51.886;15.604;2022-12-18T03:51:07;102490.61;;;-3.90;78.42
40794;BME280;26502;51.886;15.604;2022-12-18T03:56:17;102493.13;;;-3.92;78.38
40794;BME280;26502;51.886;15.604;2022-12-18T04:01:28;102503.22;;;-3.98;78.30
40794;BME280;26502;51.886;15.604;2022-12-18T04:06:40;102506.39;;;-3.98;78.68
40794;BME280;26502;51.886;15.604;2022-12-18T04:11:50;102515.98;;;-3.96;78.26
40794;BME280;26502;51.886;15.604;2022-12-18T04:16:59;102528.23;;;-4.07;78.15
40794;BME280;26502;51.886;15.604;2022-12-18T04:22:11;102524.30;;;-4.09;78.55
40794;BME280;26502;51.886;15.604;2022-12-18T04:27:22;102531.19;;;-4.03;78.52
40794;BME280;26502;51.886;15.604;2022-12-18T04:32:30;102535.74;;;-4.06;78.48
40794;BME280;26502;51.886;15.604;2022-12-18T04:37:39;102544.03;;;-4.03;78.60
40794;BME280;26502;51.886;15.604;2022-12-18T04:42:48;102538.91;;;-3.99;78.55
40794;BME280;26502;51.886;15.604;2022-12-18T04:47:55;102541.38;;;-3.95;78.83
40794;BME280;26502;51.886;15.604;2022-12-18T04:53:05;102549.25;;;-3.94;78.43
40794;BME280;26502;51.886;15.604;2022-12-18T04:58:12;102552.23;;;-3.88;78.54
40794;BME280;26502;51.886;15.604;2022-12-18T05:03:20;102552.23;;;-3.75;78.73
40794;BME280;26502;51.886;15.604;2022-12-18T05:08:27;102560.03;;;-3.88;78.28
40794;BME280;26502;51.886;15.604;2022-12-18T05:13:35;102570.27;;;-3.97;77.93
40794;BME280;26502;51.886;15.604;2022-12-18T05:18:43;102576.93;;;-4.11;78.36
40794;BME280;26502;51.886;15.604;2022-12-18T05:23:52;102579.96;;;-4.24;78.16
40794;BME280;26502;51.886;15.604;2022-12-18T05:29:00;102588.52;;;-4.35;78.19
40794;BME280;26502;51.886;15.604;2022-12-18T05:34:07;102601.59;;;-4.31;78.34
40794;BME280;26502;51.886;15.604;2022-12-18T05:39:14;102606.13;;;-4.25;78.44
40794;BME280;26502;51.886;15.604;2022-12-18T05:44:22;102611.20;;;-4.27;78.13
40794;BME280;26502;51.886;15.604;2022-12-18T05:49:29;102611.27;;;-4.20;78.33
40794;BME280;26502;51.886;15.604;2022-12-18T05:54:37;102615.02;;;-4.18;78.34
40794;BME280;26502;51.886;15.604;2022-12-18T05:59:46;102621.84;;;-4.23;78.30
40794;BME280;26502;51.886;15.604;2022-12-18T06:04:53;102623.02;;;-4.30;78.18
40794;BME280;26502;51.886;15.604;2022-12-18T06:10:00;102616.91;;;-4.39;78.37
40794;BME280;26502;51.886;15.604;2022-12-18T06:15:10;102615.55;;;-4.42;78.23
40794;BME280;26502;51.886;15.604;2022-12-18T06:20:17;102622.13;;;-4.56;78.50
40794;BME280;26502;51.886;15.604;2022-12-18T06:25:24;102616.12;;;-4.55;78.59
40794;BME280;26502;51.886;15.604;2022-12-18T06:30:31;102635.64;;;-4.54;78.52
40794;BME280;26502;51.886;15.604;2022-12-18T06:35:39;102649.13;;;-4.49;78.51
40794;BME280;26502;51.886;15.604;2022-12-18T06:40:46;102648.34;;;-4.50;78.30
40794;BME280;26502;51.886;15.604;2022-12-18T06:46:00;102637.06;;;-4.42;78.68
40794;BME280;26502;51.886;15.604;2022-12-18T06:51:08;102651.94;;;-4.60;78.35
40794;BME280;26502;51.886;15.604;2022-12-18T06:56:16;102664.16;;;-4.78;78.36
40794;BME280;26502;51.886;15.604;2022-12-18T07:01:24;102674.92;;;-4.86;78.30
40794;BME280;26502;51.886;15.604;2022-12-18T07:06:32;102691.00;;;-4.90;78.50
40794;BME280;26502;51.886;15.604;2022-12-18T07:11:39;102689.98;;;-5.03;78.58
40794;BME280;26502;51.886;15.604;2022-12-18T07:16:47;102695.45;;;-5.07;78.78
40794;BME280;26502;51.886;15.604;2022-12-18T07:21:54;102711.23;;;-5.07;78.71
40794;BME280;26502;51.886;15.604;2022-12-18T07:27:02;102712.95;;;-5.02;78.57
40794;BME280;26502;51.886;15.604;2022-12-18T07:32:10;102726.75;;;-4.97;78.38
40794;BME280;26502;51.886;15.604;2022-12-18T07:37:18;102730.38;;;-5.00;78.84
40794;BME280;26502;51.886;15.604;2022-12-18T07:42:25;102729.20;;;-5.08;78.69
40794;BME280;26502;51.886;15.604;2022-12-18T07:47:38;102727.28;;;-4.94;79.01
40794;BME280;26502;51.886;15.604;2022-12-18T07:52:48;102734.23;;;-4.91;78.72
40794;BME280;26502;51.886;15.604;2022-12-18T07:57:56;102734.88;;;-4.94;78.97
40794;BME280;26502;51.886;15.604;2022-12-18T08:03:04;102735.80;;;-4.96;78.68
40794;BME280;26502;51.886;15.604;2022-12-18T08:08:11;102744.55;;;-5.03;78.79
40794;BME280;26502;51.886;15.604;2022-12-18T08:13:19;102745.98;;;-5.08;78.76
40794;BME280;26502;51.886;15.604;2022-12-18T08:18:27;102743.49;;;-4.93;78.98
40794;BME280;26502;51.886;15.604;2022-12-18T08:23:34;102747.25;;;-4.75;79.08
40794;BME280;26502;51.886;15.604;2022-12-18T08:28:42;102744.48;;;-4.60;79.08
40794;BME280;26502;51.886;15.604;2022-12-18T08:33:52;102744.92;;;-4.53;78.93
40794;BME280;26502;51.886;15.604;2022-12-18T08:38:58;102742.02;;;-4.66;78.71
40794;BME280;26502;51.886;15.604;2022-12-18T08:44:08;102741.48;;;-4.67;78.85
40794;BME280;26502;51.886;15.604;2022-12-18T08:49:33;102739.59;;;-4.78;78.52
40794;BME280;26502;51.886;15.604;2022-12-18T08:54:40;102739.41;;;-4.86;78.75
40794;BME280;26502;51.886;15.604;2022-12-18T08:59:48;102737.76;;;-4.74;78.94
40794;BME280;26502;51.886;15.604;2022-12-18T09:04:56;102732.42;;;-4.81;78.71
40794;BME280;26502;51.886;15.604;2022-12-18T09:10:04;102731.31;;;-4.88;78.72
40794;BME280;26502;51.886;15.604;2022-12-18T09:15:12;102736.65;;;-4.74;79.00
40794;BME280;26502;51.886;15.604;2022-12-18T09:20:19;102740.13;;;-4.66;78.55
40794;BME280;26502;51.886;15.604;2022-12-18T09:25:28;102741.02;;;-4.63;78.70
40794;BME280;26502;51.886;15.604;2022-12-18T09:30:41;102747.30;;;-4.57;78.55
40794;BME280;26502;51.886;15.604;2022-12-18T09:35:49;102742.97;;;-4.71;78.78
40794;BME280;26502;51.886;15.604;2022-12-18T09:41:03;102746.27;;;-4.71;78.53
40794;BME280;26502;51.886;15.604;2022-12-18T09:46:19;102740.17;;;-4.74;78.95
40794;BME280;26502;51.886;15.604;2022-12-18T09:51:36;102741.94;;;-4.62;78.63
40794;BME280;26502;51.886;15.604;2022-12-18T09:56:52;102746.76;;;-4.60;78.55
40794;BME280;26502;51.886;15.604;2022-12-18T10:02:16;102756.80;;;-4.55;78.51
40794;BME280;26502;51.886;15.604;2022-12-18T10:07:33;102758.37;;;-4.46;78.65
40794;BME280;26502;51.886;15.604;2022-12-18T10:12:56;102755.96;;;-4.37;78.72
40794;BME280;26502;51.886;15.604;2022-12-18T10:18:24;102749.52;;;-4.26;78.37
40794;BME280;26502;51.886;15.604;2022-12-18T10:23:45;102739.97;;;-4.18;78.50
40794;BME280;26502;51.886;15.604;2022-12-18T10:29:12;102732.96;;;-4.08;78.64
40794;BME280;26502;51.886;15.604;2022-12-18T10:34:28;102728.11;;;-4.05;78.34
40794;BME280;26502;51.886;15.604;2022-12-18T10:39:41;102728.92;;;-3.97;78.56
40794;BME280;26502;51.886;15.604;2022-12-18T10:45:09;102728.98;;;-3.87;78.29
40794;BME280;26502;51.886;15.604;2022-12-18T10:50:29;102727.09;;;-3.96;78.11
40794;BME280;26502;51.886;15.604;2022-12-18T10:55:46;102728.23;;;-3.94;78.26
40794;BME280;26502;51.886;15.604;2022-12-18T11:01:09;102726.93;;;-4.01;77.97
40794;BME280;26502;51.886;15.604;2022-12-18T11:06:22;102721.50;;;-3.99;78.19
40794;BME280;26502;51.886;15.604;2022-12-18T11:11:35;102719.58;;;-3.99;78.00
40794;BME280;26502;51.886;15.604;2022-12-18T11:16:49;102716.77;;;-3.94;77.97
40794;BME280;26502;51.886;15.604;2022-12-18T11:22:03;102703.77;;;-3.97;77.83
40794;BME280;26502;51.886;15.604;2022-12-18T11:27:29;102699.27;;;-3.90;78.06
40794;BME280;26502;51.886;15.604;2022-12-18T11:32:45;102705.06;;;-3.77;77.69
40794;BME280;26502;51.886;15.604;2022-12-18T11:38:04;102706.30;;;-3.77;77.62
40794;BME280;26502;51.886;15.604;2022-12-18T11:43:16;102708.21;;;-3.68;77.51
40794;BME280;26502;51.886;15.604;2022-12-18T11:48:32;102707.91;;;-3.61;77.67
40794;BME280;26502;51.886;15.604;2022-12-18T11:53:45;102710.59;;;-3.60;77.66
40794;BME280;26502;51.886;15.604;2022-12-18T11:59:04;102712.02;;;-3.63;77.61
40794;BME280;26502;51.886;15.604;2022-12-18T12:10:00;102690.13;;;-3.78;77.24
40794;BME280;26502;51.886;15.604;2022-12-18T12:15:29;102686.00;;;-3.71;77.18
40794;BME280;26502;51.886;15.604;2022-12-18T12:20:53;102682.55;;;-3.73;76.89
40794;BME280;26502;51.886;15.604;2022-12-18T12:26:14;102686.52;;;-3.89;76.88
40794;BME280;26502;51.886;15.604;2022-12-18T12:31:43;102679.85;;;-3.72;77.24
40794;BME280;26502;51.886;15.604;2022-12-18T12:37:15;102676.89;;;-3.69;76.74
40794;BME280;26502;51.886;15.604;2022-12-18T12:42:38;102677.64;;;-3.86;76.68
40794;BME280;26502;51.886;15.604;2022-12-18T12:48:09;102683.40;;;-3.68;76.75
40794;BME280;26502;51.886;15.604;2022-12-18T12:53:31;102677.77;;;-3.63;76.38
40794;BME280;26502;51.886;15.604;2022-12-18T12:59:05;102682.45;;;-3.72;76.31
40794;BME280;26502;51.886;15.604;2022-12-18T13:04:27;102686.96;;;-3.93;75.91
40794;BME280;26502;51.886;15.604;2022-12-18T13:10:24;102691.14;;;-4.07;76.29
40794;BME280;26502;51.886;15.604;2022-12-18T13:15:45;102697.55;;;-3.96;76.34
40794;BME280;26502;51.886;15.604;2022-12-18T13:21:13;102709.79;;;-3.80;75.96
40794;BME280;26502;51.886;15.604;2022-12-18T13:26:39;102717.80;;;-3.46;76.06
40794;BME280;26502;51.886;15.604;2022-12-18T13:37:55;102737.84;;;-3.18;75.65
40794;BME280;26502;51.886;15.604;2022-12-18T13:43:27;102746.64;;;-2.91;75.75
40794;BME280;26502;51.886;15.604;2022-12-18T13:48:47;102743.55;;;-2.91;75.36
40794;BME280;26502;51.886;15.604;2022-12-18T13:54:13;102738.11;;;-2.72;75.38
40794;BME280;26502;51.886;15.604;2022-12-18T13:59:36;102738.77;;;-2.70;75.00
40794;BME280;26502;51.886;15.604;2022-12-18T14:04:56;102732.98;;;-2.80;74.71
40794;BME280;26502;51.886;15.604;2022-12-18T14:10:13;102739.67;;;-2.88;74.92
40794;BME280;26502;51.886;15.604;2022-12-18T14:15:30;102737.95;;;-2.97;74.68
40794;BME280;26502;51.886;15.604;2022-12-18T14:20:46;102725.88;;;-3.11;74.62
40794;BME280;26502;51.886;15.604;2022-12-18T14:26:01;102726.83;;;-3.25;74.22
40794;BME280;26502;51.886;15.604;2022-12-18T14:31:24;102723.55;;;-3.40;74.42
40794;BME280;26502;51.886;15.604;2022-12-18T14:36:36;102720.61;;;-3.58;74.10
40794;BME280;26502;51.886;15.604;2022-12-18T14:41:51;102719.66;;;-3.74;74.08
40794;BME280;26502;51.886;15.604;2022-12-18T14:47:04;102713.23;;;-3.92;74.20
40794;BME280;26502;51.886;15.604;2022-12-18T14:52:23;102708.59;;;-4.09;74.03
40794;BME280;26502;51.886;15.604;2022-12-18T14:57:38;102702.09;;;-4.22;73.92
40794;BME280;26502;51.886;15.604;2022-12-18T15:02:57;102698.15;;;-4.44;73.63
40794;BME280;26502;51.886;15.604;2022-12-18T15:08:34;102700.13;;;-4.62;73.49
40794;BME280;26502;51.886;15.604;2022-12-18T15:13:50;102692.74;;;-4.67;73.81
40794;BME280;26502;51.886;15.604;2022-12-18T15:19:05;102688.39;;;-4.79;73.70
40794;BME280;26502;51.886;15.604;2022-12-18T15:24:27;102686.86;;;-4.98;73.29
40794;BME280;26502;51.886;15.604;2022-12-18T15:29:43;102684.20;;;-5.12;73.33
40794;BME280;26502;51.886;15.604;2022-12-18T15:35:21;102676.66;;;-5.22;73.65
40794;BME280;26502;51.886;15.604;2022-12-18T15:40:39;102660.44;;;-5.40;73.40
40794;BME280;26502;51.886;15.604;2022-12-18T15:46:00;102653.89;;;-5.56;73.21
40794;BME280;26502;51.886;15.604;2022-12-18T15:51:22;102641.09;;;-5.64;73.23
40794;BME280;26502;51.886;15.604;2022-12-18T15:56:45;102634.35;;;-5.66;73.60
40794;BME280;26502;51.886;15.604;2022-12-18T16:02:22;102629.09;;;-5.75;73.39
40794;BME280;26502;51.886;15.604;2022-12-18T16:07:34;102639.54;;;-5.87;73.45
40794;BME280;26502;51.886;15.604;2022-12-18T16:12:51;102646.48;;;-5.87;73.35
40794;BME280;26502;51.886;15.604;2022-12-18T16:18:10;102650.67;;;-5.89;73.48
40794;BME280;26502;51.886;15.604;2022-12-18T16:23:40;102653.05;;;-5.90;73.52
40794;BME280;26502;51.886;15.604;2022-12-18T16:28:55;102664.05;;;-5.91;73.42
40794;BME280;26502;51.886;15.604;2022-12-18T16:34:23;102679.64;;;-5.91;73.33
40794;BME280;26502;51.886;15.604;2022-12-18T16:39:46;102695.77;;;-5.90;73.23
40794;BME280;26502;51.886;15.604;2022-12-18T16:45:20;102689.67;;;-5.93;73.22
40794;BME280;26502;51.886;15.604;2022-12-18T16:50:52;102693.66;;;-5.98;73.32
40794;BME280;26502;51.886;15.604;2022-12-18T16:56:16;102694.63;;;-6.05;72.86
40794;BME280;26502;51.886;15.604;2022-12-18T17:01:35;102698.91;;;-6.06;72.88
40794;BME280;26502;51.886;15.604;2022-12-18T17:06:54;102698.42;;;-6.15;72.51
40794;BME280;26502;51.886;15.604;2022-12-18T17:12:20;102695.69;;;-6.23;72.33
40794;BME280;26502;51.886;15.604;2022-12-18T17:17:44;102693.91;;;-6.31;72.51
40794;BME280;26502;51.886;15.604;2022-12-18T17:23:00;102678.21;;;-6.33;72.41
40794;BME280;26502;51.886;15.604;2022-12-18T17:28:20;102676.46;;;-6.48;72.42
40794;BME280;26502;51.886;15.604;2022-12-18T17:33:41;102672.98;;;-6.69;72.08
40794;BME280;26502;51.886;15.604;2022-12-18T17:38:59;102671.61;;;-6.76;72.48
40794;BME280;26502;51.886;15.604;2022-12-18T17:44:20;102664.09;;;-6.73;72.72
40794;BME280;26502;51.886;15.604;2022-12-18T17:49:34;102655.25;;;-6.70;72.65
40794;BME280;26502;51.886;15.604;2022-12-18T17:54:47;102656.80;;;-6.70;72.41
40794;BME280;26502;51.886;15.604;2022-12-18T18:00:05;102655.48;;;-6.75;72.47
40794;BME280;26502;51.886;15.604;2022-12-18T18:05:38;102653.52;;;-6.78;72.41
40794;BME280;26502;51.886;15.604;2022-12-18T18:10:55;102647.98;;;-6.76;72.58
40794;BME280;26502;51.886;15.604;2022-12-18T18:16:31;102640.80;;;-6.74;72.54
40794;BME280;26502;51.886;15.604;2022-12-18T18:21:49;102641.85;;;-6.77;72.38
40794;BME280;26502;51.886;15.604;2022-12-18T18:27:27;102650.60;;;-6.77;72.27
40794;BME280;26502;51.886;15.604;2022-12-18T18:32:44;102643.94;;;-6.81;72.36
40794;BME280;26502;51.886;15.604;2022-12-18T18:37:59;102648.06;;;-6.94;72.28
40794;BME280;26502;51.886;15.604;2022-12-18T18:43:28;102659.45;;;-7.02;72.17
40794;BME280;26502;51.886;15.604;2022-12-18T18:48:43;102656.77;;;-7.05;72.43
40794;BME280;26502;51.886;15.604;2022-12-18T18:54:00;102659.06;;;-6.95;72.51
40794;BME280;26502;51.886;15.604;2022-12-18T18:59:10;102656.77;;;-7.01;72.46
40794;BME280;26502;51.886;15.604;2022-12-18T19:04:19;102651.91;;;-7.08;72.61
40794;BME280;26502;51.886;15.604;2022-12-18T19:09:29;102649.08;;;-7.14;72.76
40794;BME280;26502;51.886;15.604;2022-12-18T19:14:39;102648.50;;;-7.17;72.67
40794;BME280;26502;51.886;15.604;2022-12-18T19:19:55;102646.91;;;-7.15;72.66
40794;BME280;26502;51.886;15.604;2022-12-18T19:25:05;102647.38;;;-7.11;73.26
40794;BME280;26502;51.886;15.604;2022-12-18T19:30:17;102632.73;;;-6.98;73.46
40794;BME280;26502;51.886;15.604;2022-12-18T19:35:29;102640.37;;;-6.98;73.44
40794;BME280;26502;51.886;15.604;2022-12-18T19:40:42;102643.43;;;-6.89;73.89
40794;BME280;26502;51.886;15.604;2022-12-18T19:45:58;102651.55;;;-6.89;74.02
40794;BME280;26502;51.886;15.604;2022-12-18T19:51:11;102641.26;;;-6.83;74.03
40794;BME280;26502;51.886;15.604;2022-12-18T19:56:26;102640.77;;;-6.73;74.24
40794;BME280;26502;51.886;15.604;2022-12-18T20:01:36;102630.90;;;-6.52;74.35
40794;BME280;26502;51.886;15.604;2022-12-18T20:06:56;102626.11;;;-6.34;74.31
40794;BME280;26502;51.886;15.604;2022-12-18T20:12:16;102629.79;;;-6.33;74.14
40794;BME280;26502;51.886;15.604;2022-12-18T20:17:30;102628.47;;;-6.30;74.19
40794;BME280;26502;51.886;15.604;2022-12-18T20:22:42;102631.59;;;-6.29;74.55
40794;BME280;26502;51.886;15.604;2022-12-18T20:27:52;102631.14;;;-6.26;74.39
40794;BME280;26502;51.886;15.604;2022-12-18T20:33:06;102610.75;;;-6.26;74.32
40794;BME280;26502;51.886;15.604;2022-12-18T20:38:16;102605.96;;;-6.12;74.25
40794;BME280;26502;51.886;15.604;2022-12-18T20:43:24;102584.22;;;-6.06;74.24
40794;BME280;26502;51.886;15.604;2022-12-18T20:48:39;102576.41;;;-6.06;74.21
40794;BME280;26502;51.886;15.604;2022-12-18T20:53:48;102576.02;;;-6.04;74.29
40794;BME280;26502;51.886;15.604;2022-12-18T20:58:58;102576.52;;;-6.07;73.98
40794;BME280;26502;51.886;15.604;2022-12-18T21:04:03;102565.19;;;-6.08;74.28
40794;BME280;26502;51.886;15.604;2022-12-18T21:09:12;102565.30;;;-6.01;74.30
40794;BME280;26502;51.886;15.604;2022-12-18T21:14:21;102546.61;;;-5.98;74.37
40794;BME280;26502;51.886;15.604;2022-12-18T21:19:30;102532.16;;;-6.11;74.33
40794;BME280;26502;51.886;15.604;2022-12-18T21:24:39;102533.21;;;-6.08;74.37
40794;BME280;26502;51.886;15.604;2022-12-18T21:29:47;102537.88;;;-6.11;74.08
40794;BME280;26502;51.886;15.604;2022-12-18T21:34:55;102540.10;;;-6.14;74.37
40794;BME280;26502;51.886;15.604;2022-12-18T21:40:03;102526.96;;;-6.21;74.46
40794;BME280;26502;51.886;15.604;2022-12-18T21:45:11;102503.07;;;-6.22;74.51
40794;BME280;26502;51.886;15.604;2022-12-18T21:50:19;102488.94;;;-6.19;74.51
40794;BME280;26502;51.886;15.604;2022-12-18T21:55:27;102506.80;;;-6.29;74.44
40794;BME280;26502;51.886;15.604;2022-12-18T22:00:35;102497.47;;;-6.26;74.67
40794;BME280;26502;51.886;15.604;2022-12-18T22:05:42;102487.88;;;-6.19;74.68
40794;BME280;26502;51.886;15.604;2022-12-18T22:10:49;102479.45;;;-6.08;74.59
40794;BME280;26502;51.886;15.604;2022-12-18T22:15:57;102474.70;;;-6.01;74.51
40794;BME280;26502;51.886;15.604;2022-12-18T22:21:18;102475.13;;;-6.15;74.33
40794;BME280;26502;51.886;15.604;2022-12-18T22:26:28;102469.56;;;-6.11;74.55
40794;BME280;26502;51.886;15.604;2022-12-18T22:31:36;102455.84;;;-6.03;74.70
40794;BME280;26502;51.886;15.604;2022-12-18T22:36:45;102456.92;;;-5.99;74.63
40794;BME280;26502;51.886;15.604;2022-12-18T22:41:53;102455.61;;;-5.96;74.88
40794;BME280;26502;51.886;15.604;2022-12-18T22:47:00;102457.00;;;-5.90;74.86
40794;BME280;26502;51.886;15.604;2022-12-18T22:52:10;102438.92;;;-5.89;74.69
40794;BME280;26502;51.886;15.604;2022-12-18T22:57:17;102440.38;;;-5.84;74.62
40794;BME280;26502;51.886;15.604;2022-12-18T23:02:24;102439.65;;;-5.96;74.30
40794;BME280;26502;51.886;15.604;2022-12-18T23:07:32;102438.34;;;-6.07;74.22
40794;BME280;26502;51.886;15.604;2022-12-18T23:12:40;102434.37;;;-6.14;74.38
40794;BME280;26502;51.886;15.604;2022-12-18T23:17:47;102428.21;;;-5.99;74.89
40794;BME280;26502;51.886;15.604;2022-12-18T23:22:54;102410.42;;;-5.82;74.90
40794;BME280;26502;51.886;15.604;2022-12-18T23:28:02;102398.52;;;-5.73;74.25
40794;BME280;26502;51.886;15.604;2022-12-18T23:33:10;102386.42;;;-5.73;74.64
40794;BME280;26502;51.886;15.604;2022-12-18T23:38:17;102375.19;;;-5.72;74.58
40794;BME280;26502;51.886;15.604;2022-12-18T23:43:24;102366.24;;;-5.75;74.23
40794;BME280;26502;51.886;15.604;2022-12-18T23:48:32;102349.94;;;-5.84;74.27
40794;BME280;26502;51.886;15.604;2022-12-18T23:53:40;102342.13;;;-6.02;74.22
40794;BME280;26502;51.886;15.604;2022-12-18T23:58:48;102340.20;;;-6.10;74.24
